KDGW/DGW METAR and TAF weather

Enter ICAO airport designator
Station Type Date Time Source
KDGW METAR 2020/03/31 22:53 UTC NOAA

KDGW 312253Z AUTO 26027G37KT 10SM FEW090 15/M04 A2978 RMK AO2 PK WND 25041/2205 SLP066 T01501039


Station Type Date Time Source
KDGW Decoded METAR 2020/03/31 22:53 UTC NOAA

DOUGLAS CONVERSE COUNTY, WY, United States (KDGW) 42-48N 105-23W 1499M
Mar 31, 2020 - 06:53 PM EDT / 2020.03.31 2253 UTC
Wind: from the W (260 degrees) at 31 MPH (27 KT) gusting to 43 MPH (37 KT):0
Visibility: 10 mile(s):0
Sky conditions: mostly clear
Temperature: 59.0 F (15.0 C)
Dew Point: 25.0 F (-3.9 C)
Relative Humidity: 26%
Pressure (altimeter): 29.78 in. Hg (1008 hPa)
ob: KDGW 312253Z AUTO 26027G37KT 10SM FEW090 15/M04 A2978 RMK AO2 PK WND 25041/2205 SLP066 T01501039
cycle: 23

Station Type Date Time Source
KDGW TAF UTC NOAA

Error!

Example: see airport list